sensor_id;sensor_type;location;lat;lon;timestamp;pressure;altitude;pressure_sealevel;temperature;humidity
69528;BME280;57136;51.986;4.468;2022-09-09T00:00:24;100803.81;;;16.86;100.00
69528;BME280;57136;51.986;4.468;2022-09-09T00:05:54;100798.97;;;16.66;100.00
69528;BME280;57136;51.986;4.468;2022-09-09T00:11:19;100789.59;;;16.54;100.00
69528;BME280;57136;51.986;4.468;2022-09-09T00:13:52;100785.03;;;16.61;100.00
69528;BME280;57136;51.986;4.468;2022-09-09T00:16:19;100791.31;;;16.55;100.00
69528;BME280;57136;51.986;4.468;2022-09-09T00:18:59;100785.03;;;16.61;100.00
69528;BME280;57136;51.986;4.468;2022-09-09T00:21:33;100781.59;;;16.59;100.00
69528;BME280;57136;51.986;4.468;2022-09-09T00:24:08;100784.25;;;16.57;100.00
69528;BME280;57136;51.986;4.468;2022-09-09T00:26:38;100783.13;;;16.69;100.00
69528;BME280;57136;51.986;4.468;2022-09-09T00:31:37;100784.84;;;16.70;100.00
69528;BME280;57136;51.986;4.468;2022-09-09T00:34:12;100783.91;;;16.74;100.00
69528;BME280;57136;51.986;4.468;2022-09-09T00:36:39;100772.84;;;16.58;100.00
69528;BME280;57136;51.986;4.468;2022-09-09T00:39:23;100772.06;;;16.53;100.00
69528;BME280;57136;51.986;4.468;2022-09-09T00:42:05;100773.63;;;16.62;100.00
69528;BME280;57136;51.986;4.468;2022-09-09T00:44:36;100769.34;;;16.58;100.00
69528;BME280;57136;51.986;4.468;2022-09-09T00:47:12;100781.59;;;16.59;100.00
69528;BME280;57136;51.986;4.468;2022-09-09T00:49:57;100772.06;;;16.53;100.00
69528;BME280;57136;51.986;4.468;2022-09-09T00:52:36;100770.56;;;16.41;100.00
69528;BME280;57136;51.986;4.468;2022-09-09T00:58:08;100764.50;;;16.38;100.00
69528;BME280;57136;51.986;4.468;2022-09-09T01:00:44;100768.94;;;16.34;100.00
69528;BME280;57136;51.986;4.468;2022-09-09T01:06:18;100763.28;;;16.54;100.00
69528;BME280;57136;51.986;4.468;2022-09-09T01:12:05;100750.34;;;16.43;100.00
69528;BME280;57136;51.986;4.468;2022-09-09T01:17:08;100753.22;;;16.31;100.00
69528;BME280;57136;51.986;4.468;2022-09-09T01:19:49;100756.78;;;16.30;100.00
69528;BME280;57136;51.986;4.468;2022-09-09T01:25:56;100745.88;;;16.48;100.00
69528;BME280;57136;51.986;4.468;2022-09-09T01:28:17;100745.75;;;16.55;100.00
69528;BME280;57136;51.986;4.468;2022-09-09T01:30:47;100749.28;;;16.54;100.00
69528;BME280;57136;51.986;4.468;2022-09-09T01:33:15;100746.53;;;16.58;100.00
69528;BME280;57136;51.986;4.468;2022-09-09T01:36:04;100746.72;;;16.51;100.00
69528;BME280;57136;51.986;4.468;2022-09-09T01:38:33;100737.25;;;16.42;100.00
69528;BME280;57136;51.986;4.468;2022-09-09T01:40:59;100726.91;;;16.32;100.00
69528;BME280;57136;51.986;4.468;2022-09-09T01:43:25;100729.72;;;16.25;100.00
69528;BME280;57136;51.986;4.468;2022-09-09T01:45:53;100727.09;;;16.23;100.00
69528;BME280;57136;51.986;4.468;2022-09-09T01:48:21;100727.28;;;16.15;100.00
69528;BME280;57136;51.986;4.468;2022-09-09T01:50:47;100732.63;;;16.11;100.00
69528;BME280;57136;51.986;4.468;2022-09-09T01:53:13;100730.03;;;16.09;100.00
69528;BME280;57136;51.986;4.468;2022-09-09T01:55:41;100731.41;;;16.27;100.00
69528;BME280;57136;51.986;4.468;2022-09-09T01:58:26;100733.19;;;16.27;100.00
69528;BME280;57136;51.986;4.468;2022-09-09T02:03:35;100731.34;;;16.30;100.00
69528;BME280;57136;51.986;4.468;2022-09-09T02:06:17;100719.75;;;16.41;100.00
69528;BME280;57136;51.986;4.468;2022-09-09T02:08:52;100722.38;;;16.39;100.00
69528;BME280;57136;51.986;4.468;2022-09-09T02:11:20;100718.91;;;16.39;100.00
69528;BME280;57136;51.986;4.468;2022-09-09T02:13:48;100718.81;;;16.43;100.00
69528;BME280;57136;51.986;4.468;2022-09-09T02:21:37;100708.16;;;16.50;100.00
69528;BME280;57136;51.986;4.468;2022-09-09T02:24:05;100703.78;;;16.48;100.00
69528;BME280;57136;51.986;4.468;2022-09-09T02:26:38;100706.34;;;16.52;100.00
69528;BME280;57136;51.986;4.468;2022-09-09T02:29:11;100702.81;;;16.53;100.00
69528;BME280;57136;51.986;4.468;2022-09-09T02:31:39;100693.09;;;16.56;100.00
69528;BME280;57136;51.986;4.468;2022-09-09T02:34:09;100683.34;;;16.60;100.00
69528;BME280;57136;51.986;4.468;2022-09-09T02:36:36;100681.63;;;16.59;100.00
69528;BME280;57136;51.986;4.468;2022-09-09T02:39:05;100691.16;;;16.65;100.00
69528;BME280;57136;51.986;4.468;2022-09-09T02:41:34;100682.44;;;16.62;100.00
69528;BME280;57136;51.986;4.468;2022-09-09T02:44:00;100682.38;;;16.64;100.00
69528;BME280;57136;51.986;4.468;2022-09-09T02:46:36;100679.97;;;16.55;100.00
69528;BME280;57136;51.986;4.468;2022-09-09T02:49:10;100685.19;;;16.58;100.00
69528;BME280;57136;51.986;4.468;2022-09-09T02:54:31;100687.63;;;16.64;100.00
69528;BME280;57136;51.986;4.468;2022-09-09T02:57:04;100695.47;;;16.67;100.00
69528;BME280;57136;51.986;4.468;2022-09-09T02:59:31;100684.16;;;16.63;100.00
69528;BME280;57136;51.986;4.468;2022-09-09T03:01:57;100682.38;;;16.64;100.00
69528;BME280;57136;51.986;4.468;2022-09-09T03:04:22;100686.88;;;16.59;100.00
69528;BME280;57136;51.986;4.468;2022-09-09T03:06:50;100689.44;;;16.62;100.00
69528;BME280;57136;51.986;4.468;2022-09-09T03:09:15;100677.28;;;16.56;100.00
69528;BME280;57136;51.986;4.468;2022-09-09T03:11:40;100676.34;;;16.59;100.00
69528;BME280;57136;51.986;4.468;2022-09-09T03:14:06;100674.47;;;16.66;100.00
69528;BME280;57136;51.986;4.468;2022-09-09T03:16:31;100667.56;;;16.60;100.00
69528;BME280;57136;51.986;4.468;2022-09-09T03:18:58;100668.47;;;16.59;100.00
69528;BME280;57136;51.986;4.468;2022-09-09T03:21:23;100666.06;;;16.50;100.00
69528;BME280;57136;51.986;4.468;2022-09-09T03:23:49;100664.84;;;17.02;98.92
69528;BME280;57136;51.986;4.468;2022-09-09T03:26:15;100669.78;;;16.77;99.61
69528;BME280;57136;51.986;4.468;2022-09-09T03:28:41;100670.88;;;16.70;100.00
69528;BME280;57136;51.986;4.468;2022-09-09T03:31:07;100660.97;;;17.16;97.63
69528;BME280;57136;51.986;4.468;2022-09-09T03:33:35;100657.28;;;17.23;96.40
69528;BME280;57136;51.986;4.468;2022-09-09T03:36:02;100659.59;;;17.35;95.99
69528;BME280;57136;51.986;4.468;2022-09-09T03:38:27;100662.16;;;17.39;95.52
69528;BME280;57136;51.986;4.468;2022-09-09T03:40:55;100661.19;;;17.41;95.20
69528;BME280;57136;51.986;4.468;2022-09-09T03:43:24;100668.19;;;17.42;95.46
69528;BME280;57136;51.986;4.468;2022-09-09T03:45:50;100667.22;;;17.46;94.90
69528;BME280;57136;51.986;4.468;2022-09-09T03:48:17;100663.91;;;17.38;94.64
69528;BME280;57136;51.986;4.468;2022-09-09T03:50:50;100673.22;;;17.51;94.72
69528;BME280;57136;51.986;4.468;2022-09-09T03:53:17;100665.47;;;17.45;94.44
69528;BME280;57136;51.986;4.468;2022-09-09T03:55:46;100662.38;;;17.29;94.56
69528;BME280;57136;51.986;4.468;2022-09-09T03:58:13;100666.81;;;17.27;95.01
69528;BME280;57136;51.986;4.468;2022-09-09T04:00:39;100656.16;;;17.32;94.55
69528;BME280;57136;51.986;4.468;2022-09-09T04:03:10;100654.56;;;17.26;94.60
69528;BME280;57136;51.986;4.468;2022-09-09T04:05:36;100654.50;;;17.29;95.00
69528;BME280;57136;51.986;4.468;2022-09-09T04:08:05;100650.97;;;17.29;94.83
69528;BME280;57136;51.986;4.468;2022-09-09T04:10:30;100657.06;;;17.31;94.25
69528;BME280;57136;51.986;4.468;2022-09-09T04:12:56;100657.00;;;17.34;93.90
69528;BME280;57136;51.986;4.468;2022-09-09T04:15:21;100647.53;;;17.27;93.87
69528;BME280;57136;51.986;4.468;2022-09-09T04:17:47;100650.13;;;17.28;93.92
69528;BME280;57136;51.986;4.468;2022-09-09T04:20:12;100645.00;;;17.22;94.18
69528;BME280;57136;51.986;4.468;2022-09-09T04:22:37;100636.13;;;17.26;93.77
69528;BME280;57136;51.986;4.468;2022-09-09T04:25:05;100643.28;;;17.21;93.78
69528;BME280;57136;51.986;4.468;2022-09-09T04:27:31;100636.34;;;17.18;94.04
69528;BME280;57136;51.986;4.468;2022-09-09T04:29:56;100635.44;;;17.19;93.79
69528;BME280;57136;51.986;4.468;2022-09-09T04:32:22;100630.84;;;17.28;93.65
69528;BME280;57136;51.986;4.468;2022-09-09T04:34:47;100631.09;;;17.17;93.88
69528;BME280;57136;51.986;4.468;2022-09-09T04:37:13;100623.94;;;17.22;93.82
69528;BME280;57136;51.986;4.468;2022-09-09T04:39:39;100622.34;;;17.16;93.35
69528;BME280;57136;51.986;4.468;2022-09-09T04:42:04;100618.16;;;17.09;94.10
69528;BME280;57136;51.986;4.468;2022-09-09T04:44:29;100611.84;;;17.15;94.18
69528;BME280;57136;51.986;4.468;2022-09-09T04:46:55;100618.81;;;17.17;93.71
69528;BME280;57136;51.986;4.468;2022-09-09T04:49:21;100617.03;;;17.18;93.94
69528;BME280;57136;51.986;4.468;2022-09-09T04:51:48;100616.19;;;17.17;93.83
69528;BME280;57136;51.986;4.468;2022-09-09T04:54:14;100612.88;;;17.09;93.98
69528;BME280;57136;51.986;4.468;2022-09-09T04:56:39;100613.75;;;17.10;94.38
69528;BME280;57136;51.986;4.468;2022-09-09T04:59:06;100616.47;;;17.06;94.89
69528;BME280;57136;51.986;4.468;2022-09-09T05:01:32;100618.81;;;17.17;94.47
69528;BME280;57136;51.986;4.468;2022-09-09T05:03:57;100619.84;;;17.12;94.82
69528;BME280;57136;51.986;4.468;2022-09-09T05:06:23;100617.41;;;17.04;95.55
69528;BME280;57136;51.986;4.468;2022-09-09T05:08:48;100612.06;;;17.07;95.16
69528;BME280;57136;51.986;4.468;2022-09-09T05:11:19;100621.72;;;17.06;95.24
69528;BME280;57136;51.986;4.468;2022-09-09T05:13:45;100616.50;;;17.05;95.60
69528;BME280;57136;51.986;4.468;2022-09-09T05:16:12;100615.00;;;16.95;96.43
69528;BME280;57136;51.986;4.468;2022-09-09T05:18:38;100618.19;;;17.07;95.65
69528;BME280;57136;51.986;4.468;2022-09-09T05:21:04;100609.53;;;17.02;96.25
69528;BME280;57136;51.986;4.468;2022-09-09T05:23:30;100609.41;;;17.07;95.71
69528;BME280;57136;51.986;4.468;2022-09-09T05:25:57;100605.84;;;17.10;95.05
69528;BME280;57136;51.986;4.468;2022-09-09T05:28:24;100608.31;;;17.16;95.49
69528;BME280;57136;51.986;4.468;2022-09-09T05:31:01;100608.06;;;17.25;95.17
69528;BME280;57136;51.986;4.468;2022-09-09T05:33:30;100610.47;;;17.34;94.96
69528;BME280;57136;51.986;4.468;2022-09-09T05:35:57;100606.66;;;17.45;95.21
69528;BME280;57136;51.986;4.468;2022-09-09T05:38:22;100603.16;;;17.44;95.48
69528;BME280;57136;51.986;4.468;2022-09-09T05:40:50;100611.97;;;17.43;95.96
69528;BME280;57136;51.986;4.468;2022-09-09T05:43:17;100604.53;;;17.58;95.23
69528;BME280;57136;51.986;4.468;2022-09-09T05:45:42;100619.16;;;17.70;94.37
69528;BME280;57136;51.986;4.468;2022-09-09T05:48:07;100616.59;;;17.66;94.23
69528;BME280;57136;51.986;4.468;2022-09-09T05:50:33;100616.38;;;17.74;93.57
69528;BME280;57136;51.986;4.468;2022-09-09T05:52:58;100621.56;;;17.77;93.60
69528;BME280;57136;51.986;4.468;2022-09-09T05:55:24;100624.81;;;17.86;93.77
69528;BME280;57136;51.986;4.468;2022-09-09T05:57:50;100634.03;;;18.02;91.89
69528;BME280;57136;51.986;4.468;2022-09-09T06:00:17;100624.44;;;18.00;90.90
69528;BME280;57136;51.986;4.468;2022-09-09T06:02:42;100628.63;;;18.07;90.89
69528;BME280;57136;51.986;4.468;2022-09-09T06:05:08;100627.34;;;18.20;89.76
69528;BME280;57136;51.986;4.468;2022-09-09T06:07:33;100628.44;;;18.13;90.36
69528;BME280;57136;51.986;4.468;2022-09-09T06:09:58;100628.97;;;18.24;88.72
69528;BME280;57136;51.986;4.468;2022-09-09T06:12:25;100633.19;;;18.30;88.84
69528;BME280;57136;51.986;4.468;2022-09-09T06:14:51;100629.59;;;18.33;88.66
69528;BME280;57136;51.986;4.468;2022-09-09T06:17:16;100631.47;;;18.29;88.34
69528;BME280;57136;51.986;4.468;2022-09-09T06:19:42;100634.63;;;18.40;88.42
69528;BME280;57136;51.986;4.468;2022-09-09T06:22:07;100630.84;;;18.49;87.53
69528;BME280;57136;51.986;4.468;2022-09-09T06:24:34;100630.84;;;18.49;87.21
69528;BME280;57136;51.986;4.468;2022-09-09T06:26:59;100626.56;;;18.45;87.83
69528;BME280;57136;51.986;4.468;2022-09-09T06:29:25;100628.91;;;18.54;87.84
69528;BME280;57136;51.986;4.468;2022-09-09T06:31:50;100627.31;;;18.50;87.71
69528;BME280;57136;51.986;4.468;2022-09-09T06:34:16;100633.16;;;18.59;87.38
69528;BME280;57136;51.986;4.468;2022-09-09T06:36:41;100624.75;;;18.47;87.78
69528;BME280;57136;51.986;4.468;2022-09-09T06:39:07;100631.41;;;18.59;86.67
69528;BME280;57136;51.986;4.468;2022-09-09T06:41:33;100633.41;;;18.51;87.28
69528;BME280;57136;51.986;4.468;2022-09-09T06:43:59;100626.56;;;18.45;87.12
69528;BME280;57136;51.986;4.468;2022-09-09T06:46:26;100629.94;;;18.50;87.06
69528;BME280;57136;51.986;4.468;2022-09-09T06:48:53;100627.97;;;18.57;87.16
69528;BME280;57136;51.986;4.468;2022-09-09T06:51:25;100633.97;;;18.61;87.46
69528;BME280;57136;51.986;4.468;2022-09-09T06:53:53;100628.00;;;18.82;86.04
69528;BME280;57136;51.986;4.468;2022-09-09T06:56:26;100622.94;;;18.76;86.68
69528;BME280;57136;51.986;4.468;2022-09-09T06:58:54;100628.00;;;18.82;86.14
69528;BME280;57136;51.986;4.468;2022-09-09T07:01:25;100629.53;;;18.90;85.41
69528;BME280;57136;51.986;4.468;2022-09-09T07:03:52;100623.16;;;18.68;87.12
69528;BME280;57136;51.986;4.468;2022-09-09T07:06:22;100630.34;;;18.92;85.48
69528;BME280;57136;51.986;4.468;2022-09-09T07:08:53;100620.50;;;18.97;85.44
69528;BME280;57136;51.986;4.468;2022-09-09T07:11:20;100623.28;;;18.92;86.15
69528;BME280;57136;51.986;4.468;2022-09-09T07:13:47;100625.63;;;19.01;84.65
69528;BME280;57136;51.986;4.468;2022-09-09T07:16:15;100616.31;;;18.90;84.63
69528;BME280;57136;51.986;4.468;2022-09-09T07:18:41;100620.78;;;18.87;85.09
69528;BME280;57136;51.986;4.468;2022-09-09T07:21:07;100616.31;;;18.90;84.27
69528;BME280;57136;51.986;4.468;2022-09-09T07:23:33;100622.38;;;18.93;84.35
69528;BME280;57136;51.986;4.468;2022-09-09T07:26:01;100622.69;;;18.84;84.89
69528;BME280;57136;51.986;4.468;2022-09-09T07:28:26;100620.41;;;18.73;85.55
69528;BME280;57136;51.986;4.468;2022-09-09T07:30:58;100623.84;;;18.48;86.22
69528;BME280;57136;51.986;4.468;2022-09-09T07:33:25;100611.75;;;18.68;85.86
69528;BME280;57136;51.986;4.468;2022-09-09T07:35:51;100632.03;;;18.67;85.63
69528;BME280;57136;51.986;4.468;2022-09-09T07:38:17;100632.88;;;18.68;86.11
69528;BME280;57136;51.986;4.468;2022-09-09T07:40:43;100626.75;;;18.67;86.34
69528;BME280;57136;51.986;4.468;2022-09-09T07:43:08;100634.59;;;18.69;87.07
69528;BME280;57136;51.986;4.468;2022-09-09T07:45:35;100626.28;;;18.81;86.37
69528;BME280;57136;51.986;4.468;2022-09-09T07:48:01;100627.06;;;18.83;86.60
69528;BME280;57136;51.986;4.468;2022-09-09T07:50:26;100624.97;;;18.68;86.94
69528;BME280;57136;51.986;4.468;2022-09-09T07:52:52;100623.13;;;18.70;87.22
69528;BME280;57136;51.986;4.468;2022-09-09T07:55:21;100625.81;;;18.68;85.96
69528;BME280;57136;51.986;4.468;2022-09-09T07:57:46;100625.41;;;18.81;86.19
69528;BME280;57136;51.986;4.468;2022-09-09T08:00:12;100623.66;;;18.81;85.26
69528;BME280;57136;51.986;4.468;2022-09-09T08:02:39;100629.38;;;18.94;85.79
69528;BME280;57136;51.986;4.468;2022-09-09T08:05:05;100635.19;;;19.06;85.07
69528;BME280;57136;51.986;4.468;2022-09-09T08:07:31;100627.31;;;19.04;85.48
69528;BME280;57136;51.986;4.468;2022-09-09T08:09:56;100622.84;;;19.06;84.92
69528;BME280;57136;51.986;4.468;2022-09-09T08:12:22;100631.41;;;19.13;85.10
69528;BME280;57136;51.986;4.468;2022-09-09T08:14:48;100631.25;;;19.17;84.58
69528;BME280;57136;51.986;4.468;2022-09-09T08:17:14;100630.69;;;19.09;85.12
69528;BME280;57136;51.986;4.468;2022-09-09T08:19:39;100630.88;;;19.03;84.30
69528;BME280;57136;51.986;4.468;2022-09-09T08:22:04;100620.88;;;19.11;83.46
69528;BME280;57136;51.986;4.468;2022-09-09T08:24:30;100632.03;;;19.21;83.29
69528;BME280;57136;51.986;4.468;2022-09-09T08:26:55;100631.25;;;19.17;83.25
69528;BME280;57136;51.986;4.468;2022-09-09T08:29:22;100629.63;;;19.13;83.58
69528;BME280;57136;51.986;4.468;2022-09-09T08:31:52;100627.53;;;18.98;85.06
69528;BME280;57136;51.986;4.468;2022-09-09T08:34:20;100629.63;;;19.13;83.60
69528;BME280;57136;51.986;4.468;2022-09-09T08:36:47;100635.19;;;19.06;84.58
69528;BME280;57136;51.986;4.468;2022-09-09T08:39:17;100628.28;;;19.01;84.80
69528;BME280;57136;51.986;4.468;2022-09-09T08:41:59;100635.72;;;19.15;84.28
69528;BME280;57136;51.986;4.468;2022-09-09T08:47:22;100638.25;;;19.19;84.15
69528;BME280;57136;51.986;4.468;2022-09-09T08:52:57;100640.16;;;19.15;84.18
69528;BME280;57136;51.986;4.468;2022-09-09T08:55:44;100633.03;;;19.17;84.15
69528;BME280;57136;51.986;4.468;2022-09-09T08:58:44;100635.00;;;19.10;83.66
69528;BME280;57136;51.986;4.468;2022-09-09T09:11:40;100644.34;;;19.21;84.82
69528;BME280;57136;51.986;4.468;2022-09-09T09:14:12;100649.53;;;19.24;83.72
69528;BME280;57136;51.986;4.468;2022-09-09T09:16:54;100646.78;;;19.27;84.07
69528;BME280;57136;51.986;4.468;2022-09-09T09:19:22;100652.72;;;19.59;82.50
69528;BME280;57136;51.986;4.468;2022-09-09T09:24:25;100649.22;;;19.33;83.37
69528;BME280;57136;51.986;4.468;2022-09-09T09:26:52;100644.03;;;19.30;83.74
69528;BME280;57136;51.986;4.468;2022-09-09T09:29:19;100646.22;;;19.42;84.60
69528;BME280;57136;51.986;4.468;2022-09-09T09:31:53;100647.88;;;19.70;84.61
69528;BME280;57136;51.986;4.468;2022-09-09T09:34:20;100642.19;;;19.81;85.63
69528;BME280;57136;51.986;4.468;2022-09-09T09:36:56;100634.56;;;19.97;86.16
69528;BME280;57136;51.986;4.468;2022-09-09T09:39:29;100634.44;;;20.00;85.82
69528;BME280;57136;51.986;4.468;2022-09-09T09:41:56;100636.13;;;20.03;85.19
69528;BME280;57136;51.986;4.468;2022-09-09T09:44:30;100640.38;;;20.07;84.51
69528;BME280;57136;51.986;4.468;2022-09-09T09:49:39;100632.03;;;20.18;85.54
69528;BME280;57136;51.986;4.468;2022-09-09T09:52:06;100629.13;;;20.24;84.09
69528;BME280;57136;51.986;4.468;2022-09-09T09:54:41;100635.22;;;20.48;83.83
69528;BME280;57136;51.986;4.468;2022-09-09T09:57:11;100633.03;;;20.60;83.95
69528;BME280;57136;51.986;4.468;2022-09-09T09:59:38;100630.91;;;20.68;82.73
69528;BME280;57136;51.986;4.468;2022-09-09T10:02:14;100627.59;;;20.63;82.36
69528;BME280;57136;51.986;4.468;2022-09-09T10:04:40;100628.31;;;20.22;84.29
69528;BME280;57136;51.986;4.468;2022-09-09T10:07:17;100634.03;;;19.87;86.50
69528;BME280;57136;51.986;4.468;2022-09-09T10:09:43;100634.31;;;19.56;88.89
69528;BME280;57136;51.986;4.468;2022-09-09T10:12:18;100631.34;;;19.40;91.69
69528;BME280;57136;51.986;4.468;2022-09-09T10:17:57;100634.44;;;19.02;94.02
69528;BME280;57136;51.986;4.468;2022-09-09T10:20:44;100628.34;;;19.00;95.21
69528;BME280;57136;51.986;4.468;2022-09-09T10:26:35;100625.97;;;19.43;99.19
69528;BME280;57136;51.986;4.468;2022-09-09T10:34:55;100637.38;;;20.16;92.38
69528;BME280;57136;51.986;4.468;2022-09-09T10:37:41;100626.34;;;20.27;90.15
69528;BME280;57136;51.986;4.468;2022-09-09T10:43:00;100632.22;;;20.35;88.55
69528;BME280;57136;51.986;4.468;2022-09-09T10:45:38;100636.72;;;20.33;90.10
69528;BME280;57136;51.986;4.468;2022-09-09T10:51:18;100636.06;;;20.71;87.42
69528;BME280;57136;51.986;4.468;2022-09-09T10:56:20;100630.19;;;20.64;86.97
69528;BME280;57136;51.986;4.468;2022-09-09T10:59:07;100626.66;;;21.07;85.49
69528;BME280;57136;51.986;4.468;2022-09-09T11:01:49;100634.50;;;21.31;85.06
69528;BME280;57136;51.986;4.468;2022-09-09T11:04:38;100627.06;;;21.39;84.16
69528;BME280;57136;51.986;4.468;2022-09-09T11:07:09;100629.88;;;21.95;84.75
69528;BME280;57136;51.986;4.468;2022-09-09T11:09:42;100622.59;;;22.37;80.71
69528;BME280;57136;51.986;4.468;2022-09-09T11:12:15;100629.72;;;22.73;79.00
69528;BME280;57136;51.986;4.468;2022-09-09T11:14:47;100619.97;;;22.91;76.15
69528;BME280;57136;51.986;4.468;2022-09-09T11:19:46;100626.53;;;22.66;73.70
69528;BME280;57136;51.986;4.468;2022-09-09T11:22:37;100620.44;;;22.99;75.30
69528;BME280;57136;51.986;4.468;2022-09-09T11:33:09;100631.19;;;22.42;76.01
69528;BME280;57136;51.986;4.468;2022-09-09T11:36:00;100632.94;;;22.05;76.34
69528;BME280;57136;51.986;4.468;2022-09-09T11:38:46;100631.75;;;21.53;76.01
69528;BME280;57136;51.986;4.468;2022-09-09T11:41:13;100627.41;;;21.10;79.66
69528;BME280;57136;51.986;4.468;2022-09-09T11:43:44;100627.31;;;20.69;83.04
69528;BME280;57136;51.986;4.468;2022-09-09T11:46:12;100636.59;;;20.36;84.60
69528;BME280;57136;51.986;4.468;2022-09-09T11:48:43;100653.78;;;20.02;88.44
69528;BME280;57136;51.986;4.468;2022-09-09T11:51:25;100647.88;;;19.70;91.53
69528;BME280;57136;51.986;4.468;2022-09-09T11:53:53;100644.28;;;19.48;92.51
69528;BME280;57136;51.986;4.468;2022-09-09T11:56:26;100638.09;;;18.98;96.04
69528;BME280;57136;51.986;4.468;2022-09-09T11:58:57;100647.91;;;18.93;96.89
69528;BME280;57136;51.986;4.468;2022-09-09T12:04:05;100652.63;;;18.83;99.34
69528;BME280;57136;51.986;4.468;2022-09-09T12:06:33;100641.06;;;18.87;100.00
69528;BME280;57136;51.986;4.468;2022-09-09T12:09:15;100641.56;;;18.71;100.00
69528;BME280;57136;51.986;4.468;2022-09-09T12:11:42;100644.28;;;18.97;100.00
69528;BME280;57136;51.986;4.468;2022-09-09T12:14:19;100649.00;;;18.85;100.00
69528;BME280;57136;51.986;4.468;2022-09-09T12:16:46;100644.44;;;18.91;100.00
69528;BME280;57136;51.986;4.468;2022-09-09T12:19:22;100646.28;;;19.15;100.00
69528;BME280;57136;51.986;4.468;2022-09-09T12:21:58;100644.53;;;19.16;100.00
69528;BME280;57136;51.986;4.468;2022-09-09T12:27:44;100644.41;;;19.19;100.00
69528;BME280;57136;51.986;4.468;2022-09-09T12:30:15;100651.25;;;19.25;100.00
69528;BME280;57136;51.986;4.468;2022-09-09T12:32:41;100649.59;;;19.22;100.00
69528;BME280;57136;51.986;4.468;2022-09-09T12:35:13;100657.47;;;19.49;99.62
69528;BME280;57136;51.986;4.468;2022-09-09T12:37:50;100651.25;;;19.25;100.00
69528;BME280;57136;51.986;4.468;2022-09-09T12:40:26;100653.09;;;19.23;100.00
69528;BME280;57136;51.986;4.468;2022-09-09T12:42:52;100657.81;;;19.38;99.29
69528;BME280;57136;51.986;4.468;2022-09-09T12:45:26;100663.09;;;19.38;99.74
69528;BME280;57136;51.986;4.468;2022-09-09T12:48:08;100658.91;;;19.33;97.91
69528;BME280;57136;51.986;4.468;2022-09-09T12:50:37;100656.66;;;19.47;98.05
69528;BME280;57136;51.986;4.468;2022-09-09T12:53:07;100653.34;;;19.66;98.14
69528;BME280;57136;51.986;4.468;2022-09-09T12:55:36;100656.41;;;19.53;98.62
69528;BME280;57136;51.986;4.468;2022-09-09T12:58:03;100662.50;;;19.81;97.18
69528;BME280;57136;51.986;4.468;2022-09-09T13:00:31;100659.72;;;19.84;97.52
69528;BME280;57136;51.986;4.468;2022-09-09T13:02:59;100665.03;;;19.84;97.28
69528;BME280;57136;51.986;4.468;2022-09-09T13:05:34;100658.41;;;20.19;96.42
69528;BME280;57136;51.986;4.468;2022-09-09T13:08:03;100660.91;;;20.46;94.63
69528;BME280;57136;51.986;4.468;2022-09-09T13:10:34;100659.31;;;20.64;94.24
69528;BME280;57136;51.986;4.468;2022-09-09T13:13:01;100659.50;;;20.82;92.65
69528;BME280;57136;51.986;4.468;2022-09-09T13:15:28;100652.38;;;21.05;92.05
69528;BME280;57136;51.986;4.468;2022-09-09T13:17:57;100652.66;;;21.19;89.98
69528;BME280;57136;51.986;4.468;2022-09-09T13:20:24;100657.25;;;21.35;89.56
69528;BME280;57136;51.986;4.468;2022-09-09T13:22:50;100662.44;;;21.38;87.57
69528;BME280;57136;51.986;4.468;2022-09-09T13:25:23;100668.06;;;21.51;87.73
69528;BME280;57136;51.986;4.468;2022-09-09T13:28:20;100671.56;;;21.10;87.67
69528;BME280;57136;51.986;4.468;2022-09-09T13:30:56;100673.09;;;20.95;88.09
69528;BME280;57136;51.986;4.468;2022-09-09T13:33:32;100671.31;;;20.95;87.85
69528;BME280;57136;51.986;4.468;2022-09-09T13:36:04;100675.44;;;21.03;88.57
69528;BME280;57136;51.986;4.468;2022-09-09T13:38:32;100676.38;;;20.79;88.47
69528;BME280;57136;51.986;4.468;2022-09-09T13:41:05;100678.44;;;20.71;88.13
69528;BME280;57136;51.986;4.468;2022-09-09T13:43:45;100687.47;;;20.21;90.80
69528;BME280;57136;51.986;4.468;2022-09-09T13:46:38;100692.13;;;19.90;93.30
69528;BME280;57136;51.986;4.468;2022-09-09T13:51:39;100679.66;;;19.43;95.88
69528;BME280;57136;51.986;4.468;2022-09-09T13:54:09;100678.38;;;19.30;97.76
69528;BME280;57136;51.986;4.468;2022-09-09T13:56:36;100674.44;;;19.16;99.08
69528;BME280;57136;51.986;4.468;2022-09-09T13:59:06;100663.22;;;19.10;99.49
69528;BME280;57136;51.986;4.468;2022-09-09T14:01:34;100661.19;;;18.90;99.95
69528;BME280;57136;51.986;4.468;2022-09-09T14:04:00;100670.75;;;18.94;99.84
69528;BME280;57136;51.986;4.468;2022-09-09T14:06:25;100667.66;;;18.81;100.00
69528;BME280;57136;51.986;4.468;2022-09-09T14:08:50;100666.75;;;18.82;100.00
69528;BME280;57136;51.986;4.468;2022-09-09T14:11:16;100671.50;;;18.70;100.00
69528;BME280;57136;51.986;4.468;2022-09-09T14:13:42;100662.63;;;18.73;100.00
69528;BME280;57136;51.986;4.468;2022-09-09T14:16:07;100668.53;;;18.81;100.00
69528;BME280;57136;51.986;4.468;2022-09-09T14:18:33;100663.91;;;18.88;100.00
69528;BME280;57136;51.986;4.468;2022-09-09T14:20:59;100659.84;;;19.05;100.00
69528;BME280;57136;51.986;4.468;2022-09-09T14:23:24;100652.75;;;19.07;100.00
69528;BME280;57136;51.986;4.468;2022-09-09T14:25:51;100664.41;;;19.26;100.00
69528;BME280;57136;51.986;4.468;2022-09-09T14:28:18;100666.56;;;19.40;100.00
69528;BME280;57136;51.986;4.468;2022-09-09T14:30:44;100665.31;;;19.51;100.00
69528;BME280;57136;51.986;4.468;2022-09-09T14:33:12;100673.91;;;19.81;99.89
69528;BME280;57136;51.986;4.468;2022-09-09T14:35:37;100675.31;;;19.93;98.72